createdAt,value
2022-12-27T00:01:44.034Z,102390.39
2022-12-27T00:04:11.805Z,102390.98
2022-12-27T00:06:39.901Z,102399.22
2022-12-27T00:09:07.818Z,102406.90
2022-12-27T00:11:35.662Z,102413.77
2022-12-27T00:14:04.226Z,102414.32
2022-12-27T00:16:32.218Z,102406.90
2022-12-27T00:19:00.137Z,102404.05
2022-12-27T00:21:28.114Z,102402.95
2022-12-27T00:23:56.878Z,102409.74
2022-12-27T00:26:26.410Z,102405.23
2022-12-27T00:28:54.597Z,102410.07
2022-12-27T00:31:22.630Z,102411.48
2022-12-27T00:33:51.594Z,102421.97
2022-12-27T00:36:21.075Z,102421.97
2022-12-27T00:38:49.076Z,102420.01
2022-12-27T00:41:17.031Z,102433.38
2022-12-27T00:43:45.017Z,102431.09
2022-12-27T00:46:12.959Z,102436.78
2022-12-27T00:48:40.846Z,102432.83
2022-12-27T00:51:13.042Z,102436.55
2022-12-27T00:53:40.902Z,102442.47
2022-12-27T00:56:10.085Z,102457.31
2022-12-27T00:58:40.811Z,102454.70
2022-12-27T01:01:20.189Z,102464.41
2022-12-27T01:03:48.364Z,102475.79
2022-12-27T01:06:21.317Z,102480.34
2022-12-27T01:08:49.268Z,102483.77
2022-12-27T01:11:17.801Z,102474.71
2022-12-27T01:13:46.059Z,102480.40
2022-12-27T01:16:22.420Z,102486.94
2022-12-27T01:18:50.716Z,102486.38
2022-12-27T01:21:20.717Z,102486.68
2022-12-27T01:23:48.714Z,102501.75
2022-12-27T01:26:18.917Z,102500.05
2022-12-27T01:28:47.076Z,102498.64
2022-12-27T01:31:17.159Z,102507.77
2022-12-27T01:33:45.139Z,102507.47
2022-12-27T01:36:18.615Z,102508.35
2022-12-27T01:38:46.514Z,102518.33
2022-12-27T01:41:41.504Z,102511.79
2022-12-27T01:44:40.705Z,102524.60
2022-12-27T01:47:15.925Z,102525.75
2022-12-27T01:49:47.861Z,102525.20
2022-12-27T01:52:15.690Z,102539.71
2022-12-27T01:54:43.504Z,102548.54
2022-12-27T01:57:11.377Z,102550.24
2022-12-27T01:59:39.190Z,102561.68
2022-12-27T02:02:07.336Z,102567.08
2022-12-27T02:04:35.861Z,102569.63
2022-12-27T02:07:03.715Z,102579.08
2022-12-27T02:09:40.319Z,102573.95
2022-12-27T02:12:08.709Z,102579.08
2022-12-27T02:14:42.453Z,102582.48
2022-12-27T02:17:24.671Z,102580.77
2022-12-27T02:20:15.273Z,102582.22
2022-12-27T02:23:22.980Z,102587.35
2022-12-27T02:25:50.651Z,102591.05
2022-12-27T02:28:31.021Z,102587.91
2022-12-27T02:31:06.331Z,102585.65
2022-12-27T02:33:36.346Z,102572.87
2022-12-27T02:36:09.015Z,102568.32
2022-12-27T02:38:42.282Z,102580.84
2022-12-27T02:41:29.244Z,102594.48
2022-12-27T02:44:16.586Z,102591.37
2022-12-27T02:47:03.423Z,102586.53
2022-12-27T02:49:50.913Z,102600.16
2022-12-27T02:52:58.300Z,102595.36
2022-12-27T02:55:26.030Z,102606.45
2022-12-27T02:58:09.115Z,102609.02
2022-12-27T03:01:21.484Z,102615.56
2022-12-27T03:04:46.078Z,102620.66
2022-12-27T03:07:25.670Z,102642.84
2022-12-27T03:10:39.949Z,102643.13
2022-12-27T03:13:32.502Z,102635.19
2022-12-27T03:16:10.961Z,102636.30
2022-12-27T03:18:55.750Z,102639.14
2022-12-27T03:21:50.887Z,102647.38
2022-12-27T03:24:38.735Z,102655.91
2022-12-27T03:27:19.158Z,102663.01
2022-12-27T03:30:07.932Z,102669.55
2022-12-27T03:33:09.754Z,102669.55
2022-12-27T03:36:05.274Z,102674.38
2022-12-27T03:38:35.484Z,102663.86
2022-12-27T03:41:21.837Z,102676.38
2022-12-27T03:43:49.653Z,102667.84
2022-12-27T03:46:36.204Z,102670.98
2022-12-27T03:49:06.997Z,102675.83
2022-12-27T03:51:39.090Z,102674.68
2022-12-27T03:54:10.461Z,102683.48
2022-12-27T03:56:38.688Z,102697.11
2022-12-27T03:59:06.527Z,102696.26
2022-12-27T04:01:34.473Z,102691.72
2022-12-27T04:04:02.287Z,102686.02
2022-12-27T04:06:30.083Z,102685.18
2022-12-27T04:09:16.692Z,102689.43
2022-12-27T04:12:03.286Z,102694.53
2022-12-27T04:14:49.607Z,102691.39
2022-12-27T04:17:36.153Z,102688.25
2022-12-27T04:20:22.943Z,102693.65
2022-12-27T04:23:09.293Z,102682.27
2022-12-27T04:25:55.577Z,102689.36
2022-12-27T04:28:42.103Z,102694.49
2022-12-27T04:31:28.863Z,102697.90
2022-12-27T04:34:15.455Z,102697.30
2022-12-27T04:36:43.371Z,102691.65
2022-12-27T04:39:11.220Z,102696.20
2022-12-27T04:41:57.624Z,102700.45
2022-12-27T04:44:44.127Z,102706.40
2022-12-27T04:47:37.140Z,102714.37
2022-12-27T04:50:23.963Z,102708.09
2022-12-27T04:53:11.015Z,102695.90
2022-12-27T04:55:39.018Z,102689.91
2022-12-27T04:58:06.822Z,102696.49
2022-12-27T05:00:53.156Z,102699.89
2022-12-27T05:03:22.276Z,102701.85
2022-12-27T05:05:50.314Z,102717.48
2022-12-27T05:08:36.607Z,102712.64
2022-12-27T05:11:22.905Z,102716.04
2022-12-27T05:14:03.044Z,102710.35
2022-12-27T05:16:36.558Z,102702.96
2022-12-27T05:19:05.174Z,102693.88
2022-12-27T05:21:37.017Z,102692.14
2022-12-27T05:24:24.177Z,102684.82
2022-12-27T05:26:52.001Z,102694.13
2022-12-27T05:29:19.855Z,102696.13
2022-12-27T05:31:47.802Z,102706.37
2022-12-27T05:34:15.655Z,102700.09
2022-12-27T05:36:43.428Z,102714.54
2022-12-27T05:39:11.264Z,102711.70
2022-12-27T05:41:39.221Z,102712.55
2022-12-27T05:44:07.744Z,102718.82
2022-12-27T05:46:36.141Z,102722.77
2022-12-27T05:49:04.229Z,102716.53
2022-12-27T05:51:32.081Z,102710.55
2022-12-27T05:53:59.975Z,102704.34
2022-12-27T05:56:27.833Z,102708.03
2022-12-27T05:58:55.837Z,102709.47
2022-12-27T06:01:23.721Z,102703.20
2022-12-27T06:03:51.553Z,102708.03
2022-12-27T06:06:19.380Z,102714.51
2022-12-27T06:08:47.203Z,102718.20
2022-12-27T06:11:19.188Z,102707.45
2022-12-27T06:13:51.720Z,102706.88
2022-12-27T06:16:19.916Z,102721.08
2022-12-27T06:18:47.798Z,102717.97
2022-12-27T06:21:17.199Z,102716.23
2022-12-27T06:23:45.973Z,102729.55
2022-12-27T06:26:18.665Z,102721.63
2022-12-27T06:28:46.696Z,102727.87
2022-12-27T06:31:14.637Z,102722.52
2022-12-27T06:33:42.673Z,102730.72
2022-12-27T06:36:15.115Z,102728.99
2022-12-27T06:38:42.943Z,102733.57
2022-12-27T06:41:11.764Z,102738.11
2022-12-27T06:43:40.361Z,102732.42
2022-12-27T06:46:16.879Z,102736.97
2022-12-27T06:48:46.034Z,102735.85
2022-12-27T06:51:14.509Z,102733.86
2022-12-27T06:53:42.470Z,102741.55
2022-12-27T06:56:12.120Z,102730.72
2022-12-27T06:58:40.104Z,102741.25
2022-12-27T07:01:11.624Z,102737.26
2022-12-27T07:03:39.582Z,102742.10
2022-12-27T07:06:08.873Z,102742.95
2022-12-27T07:08:37.007Z,102746.61
2022-12-27T07:11:06.919Z,102757.99
2022-12-27T07:13:35.805Z,102757.14
2022-12-27T07:16:08.247Z,102742.95
2022-12-27T07:18:36.115Z,102748.05
2022-12-27T07:21:16.936Z,102748.05
2022-12-27T07:23:46.002Z,102751.74
2022-12-27T07:26:18.916Z,102755.44
2022-12-27T07:28:46.860Z,102759.13
2022-12-27T07:31:19.525Z,102754.59
2022-12-27T07:33:47.557Z,102752.89
2022-12-27T07:36:20.157Z,102757.44
2022-12-27T07:38:47.955Z,102761.98
2022-12-27T07:41:15.934Z,102770.48
2022-12-27T07:43:45.443Z,102762.57
2022-12-27T07:46:15.255Z,102770.32
2022-12-27T07:48:43.568Z,102762.21
2022-12-27T07:51:11.877Z,102770.25
2022-12-27T07:53:39.800Z,102767.67
2022-12-27T07:56:20.183Z,102777.05
2022-12-27T07:58:51.472Z,102769.96
2022-12-27T08:01:20.621Z,102774.47
2022-12-27T08:03:48.691Z,102778.43
2022-12-27T08:06:24.134Z,102782.41
2022-12-27T08:08:52.642Z,102784.38
2022-12-27T08:11:20.937Z,102782.64
2022-12-27T08:13:53.561Z,102778.69
2022-12-27T08:16:24.495Z,102779.24
2022-12-27T08:18:57.057Z,102774.66
2022-12-27T08:21:25.060Z,102765.61
2022-12-27T08:23:52.900Z,102773.00
2022-12-27T08:26:20.851Z,102772.70
2022-12-27T08:28:48.718Z,102777.80
2022-12-27T08:31:16.717Z,102772.41
2022-12-27T08:33:44.761Z,102780.39
2022-12-27T08:39:05.938Z,102785.20
2022-12-27T08:41:40.253Z,102780.35
2022-12-27T08:44:08.391Z,102788.07
2022-12-27T08:46:36.581Z,102786.37
2022-12-27T08:49:09.575Z,102783.82
2022-12-27T08:51:41.304Z,102785.52
2022-12-27T08:54:09.553Z,102791.77
2022-12-27T08:56:37.500Z,102793.47
2022-12-27T08:59:05.296Z,102792.91
2022-12-27T09:01:33.931Z,102794.05
2022-12-27T09:04:01.981Z,102806.61
2022-12-27T09:06:30.030Z,102814.26
2022-12-27T09:08:58.018Z,102812.27
2022-12-27T09:11:30.788Z,102811.16
2022-12-27T09:13:59.928Z,102814.55
2022-12-27T09:16:28.756Z,102815.44
2022-12-27T09:19:02.396Z,102813.70
2022-12-27T09:21:32.839Z,102807.46
2022-12-27T09:24:00.991Z,102819.95
2022-12-27T09:26:30.103Z,102821.68
2022-12-27T09:28:58.952Z,102825.93
2022-12-27T09:31:27.169Z,102828.74
2022-12-27T09:33:55.486Z,102827.05
2022-12-27T09:36:25.339Z,102837.31
2022-12-27T09:38:53.967Z,102832.18
2022-12-27T09:42:12.192Z,102828.52
2022-12-27T09:44:20.545Z,102829.07
2022-12-27T09:47:14.056Z,102840.19
2022-12-27T09:49:47.529Z,102841.62
2022-12-27T09:52:23.248Z,102840.78
2022-12-27T09:55:04.449Z,102838.23
2022-12-27T09:57:41.107Z,102839.05
2022-12-27T10:00:35.262Z,102837.90
2022-12-27T10:03:07.850Z,102837.67
2022-12-27T10:05:37.161Z,102832.54
2022-12-27T10:08:13.908Z,102836.52
2022-12-27T10:10:43.118Z,102827.44
2022-12-27T10:13:38.914Z,102833.39
2022-12-27T10:16:24.697Z,102826.00
2022-12-27T10:19:30.119Z,102821.75
2022-12-27T10:21:57.809Z,102821.45
2022-12-27T10:24:46.706Z,102820.34
2022-12-27T10:27:24.431Z,102822.01
2022-12-27T10:29:56.899Z,102827.44
2022-12-27T10:32:24.830Z,102823.19
2022-12-27T10:35:17.430Z,102818.61
2022-12-27T10:37:45.452Z,102818.64
2022-12-27T10:40:27.626Z,102809.23
2022-12-27T10:43:13.017Z,102808.67
2022-12-27T10:45:43.549Z,102806.67
2022-12-27T10:48:36.402Z,102800.40
2022-12-27T10:51:15.082Z,102798.41
2022-12-27T10:53:49.421Z,102795.52
2022-12-27T10:56:36.909Z,102805.53
2022-12-27T10:59:07.688Z,102803.80
2022-12-27T11:01:36.173Z,102802.10
2022-12-27T11:04:16.123Z,102796.41
2022-12-27T11:07:03.512Z,102797.52
2022-12-27T11:09:35.148Z,102791.80
2022-12-27T11:12:17.981Z,102786.77
2022-12-27T11:15:04.377Z,102782.19
2022-12-27T11:17:44.874Z,102780.06
2022-12-27T11:20:13.747Z,102788.82
2022-12-27T11:22:51.629Z,102788.30
2022-12-27T11:25:19.590Z,102785.59
2022-12-27T11:27:48.514Z,102789.02
2022-12-27T11:30:26.948Z,102786.34
2022-12-27T11:32:54.807Z,102785.20
2022-12-27T11:35:23.421Z,102777.12
2022-12-27T11:37:51.462Z,102780.65
2022-12-27T11:40:28.530Z,102780.78
2022-12-27T11:43:01.697Z,102783.27
2022-12-27T11:45:36.768Z,102777.61
2022-12-27T11:48:08.950Z,102779.34
2022-12-27T11:51:13.946Z,102769.63
2022-12-27T11:53:55.834Z,102767.08
2022-12-27T11:56:30.064Z,102754.23
2022-12-27T11:59:35.267Z,102755.37
2022-12-27T12:02:21.424Z,102753.91
2022-12-27T12:05:07.811Z,102757.92
2022-12-27T12:08:03.588Z,102750.30
2022-12-27T12:11:03.715Z,102751.65
2022-12-27T12:14:03.917Z,102744.81
2022-12-27T12:16:51.467Z,102747.37
2022-12-27T12:19:28.382Z,102748.80
2022-12-27T12:21:56.148Z,102743.12
2022-12-27T12:24:54.535Z,102743.18
2022-12-27T12:27:29.560Z,102746.65
2022-12-27T12:30:03.310Z,102743.54
2022-12-27T12:32:58.171Z,102749.33
2022-12-27T12:35:36.019Z,102732.59
2022-12-27T12:38:12.281Z,102734.09
2022-12-27T12:41:00.712Z,102732.95
2022-12-27T12:43:42.276Z,102735.20
2022-12-27T12:46:15.378Z,102749.46
2022-12-27T12:48:56.095Z,102741.58
2022-12-27T12:51:58.748Z,102726.47
2022-12-27T12:54:44.767Z,102728.43
2022-12-27T12:57:41.207Z,102729.05
2022-12-27T13:00:23.172Z,102725.03
2022-12-27T13:03:18.097Z,102719.34
2022-12-27T13:05:54.050Z,102717.64
2022-12-27T13:08:37.778Z,102720.20
2022-12-27T13:11:19.797Z,102714.80
2022-12-27T13:14:25.442Z,102723.95
2022-12-27T13:17:00.907Z,102718.82
2022-12-27T13:19:28.712Z,102719.34
2022-12-27T13:22:22.527Z,102720.78
2022-12-27T13:25:32.929Z,102714.24
2022-12-27T13:28:55.230Z,102720.20
2022-12-27T13:31:36.613Z,102714.51
2022-12-27T13:34:23.006Z,102716.50
2022-12-27T13:37:08.260Z,102716.50
2022-12-27T13:39:50.774Z,102719.34
2022-12-27T13:42:52.442Z,102719.60
2022-12-27T13:45:32.179Z,102712.48
2022-12-27T13:48:35.307Z,102727.32
2022-12-27T13:51:12.275Z,102725.36
2022-12-27T13:54:04.785Z,102721.66
2022-12-27T13:57:00.441Z,102728.50
2022-12-27T13:59:42.282Z,102723.37
2022-12-27T14:02:25.583Z,102722.84
2022-12-27T14:05:03.499Z,102722.55
2022-12-27T14:07:51.497Z,102709.47
2022-12-27T14:10:21.998Z,102712.34
2022-12-27T14:13:03.561Z,102712.94
2022-12-27T14:16:02.662Z,102722.91
2022-12-27T14:19:21.306Z,102729.19
2022-12-27T14:21:55.383Z,102732.03
2022-12-27T14:24:32.314Z,102728.92
2022-12-27T14:27:00.155Z,102724.34
2022-12-27T14:29:55.762Z,102715.23
2022-12-27T14:32:54.394Z,102710.09
2022-12-27T14:35:56.187Z,102711.82
2022-12-27T14:38:43.747Z,102703.59
2022-12-27T14:41:36.929Z,102703.59
2022-12-27T14:44:23.992Z,102707.57
2022-12-27T14:47:16.018Z,102714.41
2022-12-27T14:49:52.119Z,102710.41
2022-12-27T14:52:40.555Z,102707.02
2022-12-27T14:55:11.851Z,102709.86
2022-12-27T14:58:31.346Z,102714.70
2022-12-27T15:01:32.358Z,102723.23
2022-12-27T15:04:07.986Z,102717.25
2022-12-27T15:06:58.258Z,102722.38
2022-12-27T15:09:35.083Z,102718.95
2022-12-27T15:12:44.490Z,102722.65
2022-12-27T15:15:28.539Z,102719.80
2022-12-27T15:18:15.834Z,102721.27
2022-12-27T15:21:07.738Z,102714.44
2022-12-27T15:23:55.617Z,102714.73
2022-12-27T15:26:58.246Z,102716.14
2022-12-27T15:29:32.022Z,102706.76
2022-12-27T15:32:13.176Z,102703.91
2022-12-27T15:34:59.687Z,102711.07
2022-12-27T15:37:49.124Z,102697.41
2022-12-27T15:40:35.948Z,102692.30
2022-12-27T15:43:51.040Z,102701.98
2022-12-27T15:46:24.630Z,102702.80
2022-12-27T15:49:13.836Z,102703.39
2022-12-27T15:52:00.531Z,102701.43
2022-12-27T15:54:56.039Z,102698.55
2022-12-27T15:57:49.836Z,102688.64
2022-12-27T16:00:24.601Z,102695.73
2022-12-27T16:03:02.865Z,102695.73
2022-12-27T16:06:00.160Z,102690.05
2022-12-27T16:08:29.294Z,102682.92
2022-12-27T16:10:57.764Z,102693.71
2022-12-27T16:13:36.011Z,102686.06
2022-12-27T16:16:16.851Z,102680.66
2022-12-27T16:18:53.270Z,102685.50
2022-12-27T16:21:22.143Z,102687.17
2022-12-27T16:23:56.341Z,102680.34
2022-12-27T16:26:30.854Z,102670.98
2022-12-27T16:29:03.724Z,102658.76
2022-12-27T16:31:37.940Z,102668.44
2022-12-27T16:34:13.593Z,102668.44
2022-12-27T16:36:45.478Z,102672.39
2022-12-27T16:39:13.197Z,102673.54
2022-12-27T16:41:56.205Z,102668.14
2022-12-27T16:44:26.690Z,102669.25
2022-12-27T16:47:13.382Z,102670.70
2022-12-27T16:50:15.427Z,102674.95
2022-12-27T16:52:48.823Z,102663.86
2022-12-27T16:55:16.853Z,102668.70
2022-12-27T16:57:50.772Z,102658.76
2022-12-27T17:00:43.961Z,102650.78
2022-12-27T17:03:36.707Z,102650.48
2022-12-27T17:06:34.585Z,102649.08
2022-12-27T17:09:11.821Z,102651.34
2022-12-27T17:11:48.301Z,102641.69
2022-12-27T17:14:27.065Z,102643.95
2022-12-27T17:17:01.658Z,102651.89
2022-12-27T17:19:38.556Z,102643.39
2022-12-27T17:22:08.040Z,102643.95
2022-12-27T17:24:35.861Z,102637.96
2022-12-27T17:27:21.153Z,102644.77
2022-12-27T17:30:02.163Z,102640.52
2022-12-27T17:33:01.516Z,102637.63
2022-12-27T17:35:57.248Z,102635.34
2022-12-27T17:38:49.780Z,102633.65
2022-12-27T17:41:59.137Z,102643.00
2022-12-27T17:44:39.758Z,102630.77
2022-12-27T17:47:32.162Z,102630.48
2022-12-27T17:53:23.605Z,102631.62
2022-12-27T17:56:32.322Z,102625.34
2022-12-27T17:59:25.796Z,102624.75
2022-12-27T18:01:55.520Z,102638.65
2022-12-27T18:04:35.245Z,102635.22
2022-12-27T18:07:04.632Z,102625.57
2022-12-27T18:09:40.982Z,102623.84
2022-12-27T18:12:18.832Z,102617.30
2022-12-27T18:14:48.201Z,102627.76
2022-12-27T18:17:28.779Z,102629.46
2022-12-27T18:19:57.301Z,102622.89
2022-12-27T18:22:25.310Z,102621.09
2022-12-27T18:24:53.158Z,102609.98
2022-12-27T18:27:22.261Z,102612.52
2022-12-27T18:29:50.271Z,102610.23
2022-12-27T18:32:18.797Z,102617.30
2022-12-27T18:34:50.599Z,102618.45
2022-12-27T18:37:20.302Z,102614.42
2022-12-27T18:39:55.268Z,102618.41
2022-12-27T18:42:33.993Z,102613.84
2022-12-27T18:45:09.686Z,102609.84
2022-12-27T18:47:41.169Z,102614.06
2022-12-27T18:50:17.075Z,102609.74
2022-12-27T18:52:49.634Z,102606.90
2022-12-27T18:55:23.237Z,102607.42
2022-12-27T18:57:50.975Z,102607.39
2022-12-27T19:00:26.445Z,102617.27
2022-12-27T19:02:55.373Z,102618.97
2022-12-27T19:05:24.819Z,102612.98
2022-12-27T19:08:02.235Z,102612.39
2022-12-27T19:10:30.873Z,102604.97
2022-12-27T19:12:58.760Z,102606.97
2022-12-27T19:15:29.478Z,102611.19
2022-12-27T19:18:01.711Z,102609.68
2022-12-27T19:20:31.618Z,102615.63
2022-12-27T19:23:01.723Z,102614.78
2022-12-27T19:25:36.672Z,102612.43
2022-12-27T19:28:13.506Z,102606.37
2022-12-27T19:30:44.951Z,102612.03
2022-12-27T19:33:31.983Z,102602.62
2022-12-27T19:35:59.812Z,102614.48
2022-12-27T19:38:28.729Z,102599.74
2022-12-27T19:41:03.285Z,102591.53
2022-12-27T19:43:37.645Z,102582.12
2022-12-27T19:46:05.549Z,102576.46
2022-12-27T19:48:33.442Z,102586.92
2022-12-27T19:51:01.231Z,102592.58
2022-12-27T19:53:37.139Z,102595.66
2022-12-27T19:56:05.401Z,102604.45
2022-12-27T19:58:33.289Z,102606.94
2022-12-27T20:01:01.280Z,102601.02
2022-12-27T20:03:29.192Z,102592.52
2022-12-27T20:06:13.622Z,102589.08
2022-12-27T20:08:47.077Z,102579.50
2022-12-27T20:11:27.480Z,102577.48
2022-12-27T20:13:55.370Z,102574.92
2022-12-27T20:16:23.195Z,102573.78
2022-12-27T20:18:51.041Z,102574.63
2022-12-27T20:21:19.749Z,102575.77
2022-12-27T20:23:47.696Z,102587.94
2022-12-27T20:26:19.377Z,102577.67
2022-12-27T20:28:47.292Z,102577.67
2022-12-27T20:31:16.730Z,102575.09
2022-12-27T20:33:44.621Z,102581.04
2022-12-27T20:36:12.610Z,102571.72
2022-12-27T20:38:40.608Z,102567.44
2022-12-27T20:41:09.751Z,102562.30
2022-12-27T20:43:37.811Z,102565.12
2022-12-27T20:46:13.234Z,102564.27
2022-12-27T20:48:41.950Z,102570.19
2022-12-27T20:51:11.354Z,102573.32
2022-12-27T20:53:39.161Z,102571.16
2022-12-27T20:56:07.613Z,102565.28
2022-12-27T20:58:35.561Z,102558.58
2022-12-27T21:01:16.934Z,102550.56
2022-12-27T21:03:45.001Z,102553.34
2022-12-27T21:06:14.813Z,102547.10
2022-12-27T21:08:47.884Z,102537.75
2022-12-27T21:11:24.869Z,102532.02
2022-12-27T21:13:52.934Z,102534.55
2022-12-27T21:16:22.707Z,102529.41
2022-12-27T21:18:50.744Z,102533.92
2022-12-27T21:21:20.507Z,102538.66
2022-12-27T21:23:48.596Z,102535.76
2022-12-27T21:26:21.055Z,102530.10
2022-12-27T21:28:49.605Z,102521.30
2022-12-27T21:31:18.377Z,102510.84
2022-12-27T21:33:46.418Z,102520.71
2022-12-27T21:36:16.813Z,102524.67
2022-12-27T21:38:44.791Z,102519.77
2022-12-27T21:41:17.429Z,102516.95
2022-12-27T21:43:45.733Z,102524.57
2022-12-27T21:46:16.272Z,102525.98
2022-12-27T21:48:44.261Z,102521.95
2022-12-27T21:51:16.021Z,102527.02
2022-12-27T21:53:44.052Z,102522.19
2022-12-27T21:56:12.645Z,102534.61
2022-12-27T21:58:40.745Z,102521.23
2022-12-27T22:01:10.381Z,102513.59
2022-12-27T22:03:39.507Z,102512.97
2022-12-27T22:06:14.765Z,102513.75
2022-12-27T22:08:43.824Z,102515.74
2022-12-27T22:11:14.297Z,102512.34
2022-12-27T22:13:42.555Z,102513.72
2022-12-27T22:16:13.758Z,102520.98
2022-12-27T22:18:46.130Z,102507.73
2022-12-27T22:21:15.895Z,102514.80
2022-12-27T22:23:45.114Z,102511.13
2022-12-27T22:26:15.342Z,102519.05
2022-12-27T22:28:43.368Z,102519.05
2022-12-27T22:31:36.127Z,102518.75
2022-12-27T22:34:04.627Z,102524.34
